createdAt,value
2022-08-07T00:01:43.240Z,65.58
2022-08-07T00:03:55.170Z,66.29
2022-08-07T00:06:29.569Z,66.15
2022-08-07T00:09:16.180Z,65.92
2022-08-07T00:11:47.979Z,65.39
2022-08-07T00:14:25.462Z,65.02
2022-08-07T00:16:57.090Z,64.45
2022-08-07T00:19:26.174Z,65.57
2022-08-07T00:22:10.941Z,65.42
2022-08-07T00:24:38.937Z,65.61
2022-08-07T00:27:07.793Z,66.40
2022-08-07T00:29:37.620Z,66.17
2022-08-07T00:32:05.973Z,66.11
2022-08-07T00:34:33.737Z,66.38
2022-08-07T00:37:02.791Z,67.33
2022-08-07T00:39:32.329Z,67.11
2022-08-07T00:42:05.133Z,66.75
2022-08-07T00:44:33.140Z,66.71
2022-08-07T00:47:02.521Z,67.87
2022-08-07T00:50:18.980Z,67.03
2022-08-07T00:52:17.771Z,67.83
2022-08-07T00:54:47.150Z,68.18
2022-08-07T00:57:22.141Z,66.45
2022-08-07T00:59:49.514Z,67.38
2022-08-07T01:02:28.264Z,67.69
2022-08-07T01:04:58.366Z,67.31
2022-08-07T01:07:27.614Z,67.56
2022-08-07T01:10:06.619Z,66.47
2022-08-07T01:12:53.071Z,67.16
2022-08-07T01:15:20.856Z,68.03
2022-08-07T01:17:49.313Z,68.44
2022-08-07T01:20:17.748Z,68.97
2022-08-07T01:23:12.301Z,69.38
2022-08-07T01:25:54.398Z,68.88
2022-08-07T01:28:22.004Z,69.25
2022-08-07T01:30:51.230Z,68.33
2022-08-07T01:33:19.591Z,67.81
2022-08-07T01:35:53.398Z,67.38
2022-08-07T01:38:25.812Z,68.15
2022-08-07T01:40:59.679Z,68.19
2022-08-07T01:43:34.761Z,68.21
2022-08-07T01:46:08.384Z,67.09
2022-08-07T01:48:42.253Z,67.91
2022-08-07T01:52:00.999Z,68.51
2022-08-07T01:54:19.199Z,67.63
2022-08-07T01:57:03.288Z,68.56
2022-08-07T01:59:36.779Z,68.85
2022-08-07T02:03:12.204Z,68.94
2022-08-07T02:05:06.110Z,69.26
2022-08-07T02:07:49.848Z,69.36
2022-08-07T02:10:25.034Z,68.71
2022-08-07T02:12:53.823Z,68.11
2022-08-07T02:15:26.375Z,69.32
2022-08-07T02:17:57.563Z,69.40
2022-08-07T02:20:29.990Z,69.01
2022-08-07T02:23:01.868Z,69.46
2022-08-07T02:26:31.342Z,69.54
2022-08-07T02:28:25.409Z,70.16
2022-08-07T02:30:55.402Z,70.66
2022-08-07T02:33:25.263Z,70.61
2022-08-07T02:36:29.080Z,69.75
2022-08-07T02:38:58.768Z,69.02
2022-08-07T02:41:33.219Z,69.67
2022-08-07T02:44:02.233Z,70.89
2022-08-07T02:46:36.708Z,70.66
2022-08-07T02:49:04.246Z,71.94
2022-08-07T02:51:49.785Z,71.52
2022-08-07T02:54:22.115Z,71.31
2022-08-07T02:56:55.585Z,71.83
2022-08-07T02:59:27.550Z,72.34
2022-08-07T03:01:55.684Z,72.68
2022-08-07T03:04:25.700Z,72.97
2022-08-07T03:06:54.284Z,73.86
2022-08-07T03:09:43.668Z,74.19
2022-08-07T03:12:22.211Z,74.12
2022-08-07T03:14:52.138Z,74.97
2022-08-07T03:17:20.215Z,75.76
2022-08-07T03:19:54.671Z,76.12
2022-08-07T03:22:30.513Z,100.00
2022-08-07T03:24:59.951Z,76.12
2022-08-07T03:27:30.580Z,76.90
2022-08-07T03:30:16.683Z,77.88
2022-08-07T03:32:58.788Z,78.04
2022-08-07T03:35:43.584Z,76.19
2022-08-07T03:38:16.515Z,76.24
2022-08-07T03:40:53.965Z,75.77
2022-08-07T03:43:33.057Z,75.67
2022-08-07T03:46:10.610Z,75.80
2022-08-07T03:49:01.967Z,76.13
2022-08-07T03:51:47.938Z,74.63
2022-08-07T03:54:36.485Z,76.02
2022-08-07T03:57:10.539Z,76.23
2022-08-07T04:00:01.621Z,77.02
2022-08-07T04:02:31.115Z,77.59
2022-08-07T04:04:58.758Z,76.05
2022-08-07T04:07:26.008Z,76.88
2022-08-07T04:10:04.117Z,76.69
2022-08-07T04:12:35.232Z,100.00
2022-08-07T04:15:05.200Z,100.00
2022-08-07T04:18:57.550Z,100.00
2022-08-07T04:20:20.189Z,100.00
2022-08-07T04:22:53.569Z,100.00
2022-08-07T04:25:29.504Z,100.00
2022-08-07T04:28:00.389Z,100.00
2022-08-07T04:30:43.426Z,100.00
2022-08-07T04:33:13.804Z,100.00
2022-08-07T04:35:44.793Z,100.00
2022-08-07T04:38:17.977Z,100.00
2022-08-07T04:40:52.656Z,100.00
2022-08-07T04:44:09.846Z,100.00
2022-08-07T04:46:20.161Z,100.00
2022-08-07T04:49:03.483Z,100.00
2022-08-07T04:51:51.616Z,100.00
2022-08-07T04:54:30.306Z,100.00
2022-08-07T04:58:09.996Z,100.00
2022-08-07T05:00:10.858Z,74.00
2022-08-07T05:02:53.198Z,73.76
2022-08-07T05:05:52.887Z,73.44
2022-08-07T05:08:18.940Z,72.53
2022-08-07T05:11:11.930Z,73.02
2022-08-07T05:14:52.507Z,73.02
2022-08-07T05:16:47.533Z,72.47
2022-08-07T05:19:32.620Z,72.33
2022-08-07T05:22:11.965Z,72.70
2022-08-07T05:24:40.621Z,71.88
2022-08-07T05:27:14.447Z,71.22
2022-08-07T05:29:59.806Z,71.67
2022-08-07T05:32:27.194Z,71.25
2022-08-07T05:34:57.117Z,70.94
2022-08-07T05:37:25.721Z,68.86
2022-08-07T05:40:13.960Z,69.20
2022-08-07T05:42:40.106Z,68.63
2022-08-07T05:45:14.602Z,63.76
2022-08-07T05:48:01.555Z,59.16
2022-08-07T05:50:32.240Z,61.47
2022-08-07T05:53:00.466Z,61.25
2022-08-07T05:56:02.325Z,60.21
2022-08-07T05:58:22.060Z,58.76
2022-08-07T06:01:06.054Z,58.55
2022-08-07T06:03:53.614Z,57.22
2022-08-07T06:06:29.858Z,100.00
2022-08-07T06:09:04.743Z,59.05
2022-08-07T06:11:33.362Z,58.81
2022-08-07T06:14:11.953Z,56.30
2022-08-07T06:16:44.458Z,56.60
2022-08-07T06:19:57.574Z,55.52
2022-08-07T06:22:15.331Z,56.28
2022-08-07T06:24:53.496Z,55.66
2022-08-07T06:27:59.579Z,55.42
2022-08-07T06:30:24.241Z,54.40
2022-08-07T06:33:00.222Z,55.12
2022-08-07T06:35:39.176Z,54.36
2022-08-07T06:38:15.325Z,54.79
2022-08-07T06:40:50.171Z,54.03
2022-08-07T06:43:21.021Z,53.52
2022-08-07T06:45:49.075Z,53.65
2022-08-07T06:48:24.856Z,53.46
2022-08-07T06:50:54.419Z,52.96
2022-08-07T06:54:12.040Z,52.54
2022-08-07T06:56:15.446Z,51.95
2022-08-07T07:00:13.372Z,52.32
2022-08-07T07:01:43.641Z,100.00
2022-08-07T07:04:28.329Z,100.00
2022-08-07T07:07:02.000Z,50.76
2022-08-07T07:09:31.782Z,50.82
2022-08-07T07:12:19.670Z,50.05
2022-08-07T07:14:56.558Z,49.41
2022-08-07T07:17:38.916Z,49.62
2022-08-07T07:20:11.971Z,49.18
2022-08-07T07:24:08.992Z,48.66
2022-08-07T07:26:35.941Z,48.34
2022-08-07T07:28:29.784Z,48.96
2022-08-07T07:31:17.391Z,48.32
2022-08-07T07:33:56.901Z,48.50
2022-08-07T07:36:32.690Z,47.98
2022-08-07T07:39:02.449Z,48.25
2022-08-07T07:41:50.830Z,48.18
2022-08-07T07:44:26.637Z,46.93
2022-08-07T07:47:04.284Z,47.06
2022-08-07T07:50:33.455Z,46.45
2022-08-07T07:52:31.069Z,47.18
2022-08-07T07:54:59.697Z,47.46
2022-08-07T07:57:50.554Z,46.65
2022-08-07T08:00:28.880Z,45.53
2022-08-07T08:03:05.865Z,45.26
2022-08-07T08:05:50.955Z,46.07
2022-08-07T08:08:34.654Z,44.85
2022-08-07T08:11:08.588Z,44.94
2022-08-07T08:13:54.484Z,44.54
2022-08-07T08:16:30.041Z,44.58
2022-08-07T08:19:00.345Z,43.50
2022-08-07T08:22:00.665Z,42.80
2022-08-07T08:25:04.579Z,42.81
2022-08-07T08:27:56.475Z,42.33
2022-08-07T08:30:27.847Z,41.54
2022-08-07T08:32:57.444Z,41.31
2022-08-07T08:35:28.631Z,40.79
2022-08-07T08:38:03.221Z,40.58
2022-08-07T08:40:34.541Z,39.10
2022-08-07T08:43:10.942Z,38.84
2022-08-07T08:45:59.246Z,38.88
2022-08-07T08:48:36.167Z,39.32
2022-08-07T08:51:14.765Z,38.97
2022-08-07T08:54:00.886Z,37.56
2022-08-07T08:56:33.238Z,37.02
2022-08-07T08:59:13.737Z,36.63
2022-08-07T09:01:51.178Z,35.76
2022-08-07T09:04:30.377Z,35.67
2022-08-07T09:07:03.992Z,36.41
2022-08-07T09:09:56.663Z,36.55
2022-08-07T09:12:40.819Z,35.31
2022-08-07T09:16:25.842Z,35.49
2022-08-07T09:18:47.323Z,35.75
2022-08-07T09:22:23.132Z,35.62
2022-08-07T09:24:55.374Z,36.10
2022-08-07T09:27:38.320Z,35.13
2022-08-07T09:30:27.918Z,34.61
2022-08-07T09:33:16.566Z,35.32
2022-08-07T09:36:04.506Z,33.79
2022-08-07T09:38:50.115Z,34.49
2022-08-07T09:41:36.273Z,34.11
2022-08-07T09:44:32.815Z,34.14
2022-08-07T09:47:51.239Z,34.05
2022-08-07T09:50:18.620Z,34.05
2022-08-07T09:52:53.932Z,33.84
2022-08-07T09:55:29.775Z,33.60
2022-08-07T09:58:48.706Z,33.16
2022-08-07T10:01:51.303Z,34.02
2022-08-07T10:04:53.403Z,33.47
2022-08-07T10:07:52.586Z,34.02
2022-08-07T10:11:00.267Z,33.35
2022-08-07T10:14:00.768Z,32.75
2022-08-07T10:16:42.173Z,33.71
2022-08-07T10:19:41.901Z,32.58
2022-08-07T10:22:33.619Z,32.72
2022-08-07T10:25:13.787Z,32.45
2022-08-07T10:27:53.926Z,30.14
2022-08-07T10:30:33.440Z,30.59
2022-08-07T10:33:17.494Z,30.81
2022-08-07T10:36:05.436Z,31.13
2022-08-07T10:38:49.073Z,30.60
2022-08-07T10:41:46.508Z,30.17
2022-08-07T10:44:37.710Z,29.80
2022-08-07T10:47:19.805Z,30.10
2022-08-07T10:50:02.911Z,29.03
2022-08-07T10:52:42.638Z,29.90
2022-08-07T10:55:32.484Z,29.67
2022-08-07T10:58:32.091Z,29.03
2022-08-07T11:01:22.214Z,29.29
2022-08-07T11:04:23.334Z,29.43
2022-08-07T11:06:58.190Z,28.07
2022-08-07T11:10:09.470Z,29.34
2022-08-07T11:12:32.149Z,29.61
2022-08-07T11:15:04.342Z,29.14
2022-08-07T11:17:49.648Z,27.41
2022-08-07T11:20:24.364Z,27.37
2022-08-07T11:23:01.541Z,27.43
2022-08-07T11:25:42.467Z,28.71
2022-08-07T11:28:20.288Z,28.08
2022-08-07T11:30:55.722Z,27.70
2022-08-07T11:33:59.662Z,27.84
2022-08-07T11:36:37.620Z,28.68
2022-08-07T11:39:19.465Z,28.68
2022-08-07T11:42:01.795Z,27.55
2022-08-07T11:44:40.383Z,26.88
2022-08-07T11:47:38.627Z,100.00
2022-08-07T11:50:44.717Z,100.00
2022-08-07T11:53:43.356Z,26.88
2022-08-07T11:56:41.741Z,26.17
2022-08-07T12:00:10.822Z,100.00
2022-08-07T12:02:30.907Z,100.00
2022-08-07T12:05:15.237Z,24.87
2022-08-07T12:08:03.600Z,25.41
2022-08-07T12:10:41.706Z,24.88
2022-08-07T12:13:17.126Z,25.21
2022-08-07T12:16:06.041Z,25.37
2022-08-07T12:18:45.043Z,25.21
2022-08-07T12:21:55.667Z,25.53
2022-08-07T12:24:37.631Z,25.89
2022-08-07T12:27:13.255Z,24.86
2022-08-07T12:29:51.689Z,26.10
2022-08-07T12:32:22.630Z,25.16
2022-08-07T12:34:55.732Z,24.30
2022-08-07T12:37:28.382Z,25.00
2022-08-07T12:40:44.052Z,23.73
2022-08-07T12:43:09.806Z,24.25
2022-08-07T12:45:45.458Z,24.67
2022-08-07T12:48:41.505Z,23.50
2022-08-07T12:51:20.999Z,23.99
2022-08-07T12:54:03.370Z,23.03
2022-08-07T12:56:51.266Z,23.32
2022-08-07T12:59:33.269Z,23.63
2022-08-07T13:02:49.621Z,24.14
2022-08-07T13:06:02.734Z,23.57
2022-08-07T13:08:48.973Z,23.37
2022-08-07T13:12:02.699Z,24.42
2022-08-07T13:14:34.821Z,24.07
2022-08-07T13:17:10.032Z,25.71
2022-08-07T13:19:51.404Z,24.51
2022-08-07T13:22:31.146Z,24.27
2022-08-07T13:25:03.017Z,23.74
2022-08-07T13:28:12.458Z,24.23
2022-08-07T13:30:39.973Z,23.49
2022-08-07T13:34:32.034Z,23.28
2022-08-07T13:36:09.475Z,100.00
2022-08-07T13:38:54.331Z,100.00
2022-08-07T13:41:30.263Z,100.00
2022-08-07T13:44:02.355Z,23.91
2022-08-07T13:46:41.820Z,22.75
2022-08-07T13:50:32.910Z,23.71
2022-08-07T13:52:23.016Z,23.28
2022-08-07T13:54:56.359Z,22.69
2022-08-07T13:57:37.686Z,22.27
2022-08-07T14:00:26.015Z,22.07
2022-08-07T14:02:56.618Z,22.02
2022-08-07T14:05:37.158Z,21.44
2022-08-07T14:08:07.167Z,21.09
2022-08-07T14:10:41.939Z,21.29
2022-08-07T14:13:14.226Z,21.94
2022-08-07T14:15:45.219Z,20.40
2022-08-07T14:18:29.905Z,21.01
2022-08-07T14:21:08.527Z,21.74
2022-08-07T14:24:00.473Z,21.34
2022-08-07T14:26:37.422Z,22.17
2022-08-07T14:30:02.821Z,22.05
2022-08-07T14:31:57.700Z,22.58
2022-08-07T14:34:30.959Z,21.75
2022-08-07T14:37:02.950Z,21.59
2022-08-07T14:40:17.892Z,21.33
2022-08-07T14:42:32.430Z,21.51
2022-08-07T14:45:21.855Z,21.89
2022-08-07T14:47:51.255Z,21.28
2022-08-07T14:50:28.821Z,20.95
2022-08-07T14:53:07.887Z,100.00
2022-08-07T14:55:35.861Z,100.00
2022-08-07T14:58:27.459Z,100.00
2022-08-07T15:00:55.606Z,100.00
2022-08-07T15:03:52.816Z,100.00
2022-08-07T15:06:23.509Z,100.00
2022-08-07T15:08:55.689Z,100.00
2022-08-07T15:14:19.926Z,20.95
2022-08-07T15:22:51.697Z,20.98
2022-08-07T15:25:25.526Z,100.00
2022-08-07T15:28:34.616Z,100.00
2022-08-07T15:33:46.123Z,100.00
2022-08-07T15:37:03.166Z,100.00
2022-08-07T15:39:10.538Z,100.00
2022-08-07T15:42:46.821Z,100.00
2022-08-07T15:44:30.327Z,100.00
2022-08-07T15:47:03.323Z,100.00
2022-08-07T15:50:04.297Z,100.00
2022-08-07T15:52:30.447Z,100.00
2022-08-07T15:55:03.787Z,100.00
2022-08-07T15:57:48.227Z,100.00
2022-08-07T16:00:31.921Z,100.00
2022-08-07T16:03:22.193Z,21.35
2022-08-07T16:05:56.520Z,21.72
2022-08-07T16:08:33.456Z,22.26
2022-08-07T16:11:26.292Z,22.95
2022-08-07T16:14:11.714Z,22.44
2022-08-07T16:16:57.114Z,21.62
2022-08-07T16:19:59.438Z,22.65
2022-08-07T16:22:54.441Z,23.63
2022-08-07T16:25:54.471Z,24.01
2022-08-07T16:30:08.382Z,24.52
2022-08-07T16:31:51.259Z,24.30
2022-08-07T16:34:32.962Z,24.30
2022-08-07T16:38:06.587Z,24.65
2022-08-07T16:41:01.885Z,24.69
2022-08-07T16:44:06.099Z,25.26
2022-08-07T16:47:15.754Z,25.27
2022-08-07T16:50:37.128Z,25.68
2022-08-07T16:54:01.977Z,25.30
2022-08-07T16:56:20.131Z,25.90
2022-08-07T16:59:14.340Z,25.53
2022-08-07T17:01:58.056Z,26.00
2022-08-07T17:04:35.053Z,25.99
2022-08-07T17:07:13.636Z,25.84
2022-08-07T17:10:07.228Z,26.01
2022-08-07T17:12:44.087Z,25.98
2022-08-07T17:15:23.463Z,26.02
2022-08-07T17:18:18.376Z,26.21
2022-08-07T17:20:46.822Z,25.83
2022-08-07T17:23:33.448Z,26.34
2022-08-07T17:26:23.214Z,26.61
2022-08-07T17:29:09.654Z,27.08
2022-08-07T17:32:06.230Z,27.34
2022-08-07T17:35:02.675Z,26.78
2022-08-07T17:38:06.615Z,28.09
2022-08-07T17:40:30.535Z,27.55
2022-08-07T17:43:03.974Z,27.98
2022-08-07T17:45:54.458Z,27.66
2022-08-07T17:48:30.911Z,28.24
2022-08-07T17:51:08.348Z,27.86
2022-08-07T17:54:01.202Z,27.95
2022-08-07T17:56:32.649Z,28.11
2022-08-07T17:59:10.458Z,28.30
2022-08-07T18:01:50.345Z,28.30
2022-08-07T18:04:42.095Z,28.55
2022-08-07T18:07:34.097Z,29.02
2022-08-07T18:10:09.844Z,28.43
2022-08-07T18:13:06.865Z,29.05
2022-08-07T18:15:53.475Z,29.28
2022-08-07T18:18:47.500Z,28.82
2022-08-07T18:21:38.269Z,29.04
2022-08-07T18:24:07.637Z,29.28
2022-08-07T18:26:56.930Z,29.91
2022-08-07T18:30:05.523Z,30.15
2022-08-07T18:32:38.132Z,31.09
2022-08-07T18:35:16.595Z,31.01
2022-08-07T18:38:58.723Z,31.13
2022-08-07T18:41:08.049Z,31.14
2022-08-07T18:43:49.576Z,32.02
2022-08-07T18:46:27.089Z,33.28
2022-08-07T18:50:31.818Z,33.31
2022-08-07T18:52:37.962Z,33.73
2022-08-07T18:55:40.858Z,34.95
2022-08-07T18:57:58.579Z,34.94
2022-08-07T19:00:42.456Z,34.52
2022-08-07T19:03:37.876Z,34.76
2022-08-07T19:06:11.814Z,35.69
2022-08-07T19:09:09.467Z,36.73
2022-08-07T19:12:05.577Z,37.14
2022-08-07T19:15:02.412Z,38.70
2022-08-07T19:18:02.401Z,39.32
2022-08-07T19:20:38.758Z,39.55
2022-08-07T19:23:59.081Z,41.03
2022-08-07T19:26:29.363Z,40.58
2022-08-07T19:31:02.072Z,40.93
2022-08-07T19:32:07.745Z,41.72
2022-08-07T19:34:47.923Z,41.82
2022-08-07T19:37:18.026Z,42.32
2022-08-07T19:40:01.891Z,41.64
2022-08-07T19:42:31.630Z,43.08
2022-08-07T19:46:05.716Z,41.80
2022-08-07T19:48:02.037Z,42.09
2022-08-07T19:50:41.201Z,42.29
2022-08-07T19:54:32.247Z,42.27
2022-08-07T19:56:02.036Z,42.66
2022-08-07T19:58:33.539Z,43.07
2022-08-07T20:01:03.213Z,43.41
2022-08-07T20:03:37.337Z,44.54
2022-08-07T20:06:15.621Z,44.62
2022-08-07T20:08:58.401Z,44.67
2022-08-07T20:12:00.973Z,44.83
2022-08-07T20:14:31.266Z,45.58
2022-08-07T20:17:03.596Z,45.66
2022-08-07T20:19:49.449Z,46.22
2022-08-07T20:22:29.279Z,45.55
2022-08-07T20:25:12.492Z,45.16
2022-08-07T20:27:54.156Z,45.58
2022-08-07T20:30:31.579Z,45.12
2022-08-07T20:33:01.692Z,44.23
2022-08-07T20:35:51.783Z,45.07
2022-08-07T20:38:22.608Z,45.49
2022-08-07T20:40:53.482Z,45.94
2022-08-07T20:43:26.707Z,46.93
2022-08-07T20:46:27.062Z,47.01
2022-08-07T20:48:58.136Z,47.37
2022-08-07T20:51:40.306Z,47.45
2022-08-07T20:54:12.288Z,47.23
2022-08-07T20:56:48.595Z,47.67
2022-08-07T21:00:04.861Z,48.39
2022-08-07T21:02:32.854Z,48.61
2022-08-07T21:05:04.482Z,48.36
2022-08-07T21:07:38.620Z,48.83
2022-08-07T21:10:11.631Z,48.50
2022-08-07T21:12:40.220Z,47.69
2022-08-07T21:15:18.549Z,46.71
2022-08-07T21:18:20.848Z,100.00
2022-08-07T21:20:40.267Z,48.89
2022-08-07T21:23:21.310Z,47.25
2022-08-07T21:26:03.617Z,47.66
2022-08-07T21:28:48.870Z,47.88
2022-08-07T21:31:49.645Z,48.32
2022-08-07T21:34:21.787Z,48.95
2022-08-07T21:37:02.807Z,49.33
2022-08-07T21:39:46.505Z,49.30
2022-08-07T21:42:46.824Z,50.17
2022-08-07T21:46:03.433Z,50.12
2022-08-07T21:48:29.012Z,50.83
2022-08-07T21:51:19.615Z,51.25
2022-08-07T21:53:52.662Z,50.83
2022-08-07T21:56:35.987Z,50.43
2022-08-07T21:59:09.706Z,51.42
2022-08-07T22:02:10.528Z,52.64
2022-08-07T22:04:35.407Z,52.64
2022-08-07T22:07:09.106Z,51.08
2022-08-07T22:09:54.375Z,51.50
2022-08-07T22:12:27.349Z,52.50
2022-08-07T22:16:39.489Z,52.02
2022-08-07T22:17:57.782Z,52.77
2022-08-07T22:20:32.470Z,52.68
2022-08-07T22:23:18.670Z,52.61
2022-08-07T22:26:02.063Z,52.10
2022-08-07T22:28:41.623Z,52.14
2022-08-07T22:31:59.641Z,51.02
2022-08-07T22:34:18.667Z,52.14
2022-08-07T22:37:09.539Z,53.26
2022-08-07T22:39:52.858Z,52.72
2022-08-07T22:42:29.266Z,52.45
2022-08-07T22:45:03.646Z,54.25
2022-08-07T22:48:01.959Z,54.32
2022-08-07T22:50:55.672Z,54.96
2022-08-07T22:54:05.308Z,55.58
2022-08-07T22:56:30.138Z,54.74
2022-08-07T22:59:22.312Z,55.28
2022-08-07T23:02:01.653Z,55.74
2022-08-07T23:04:57.985Z,55.71
2022-08-07T23:07:48.243Z,55.86
2022-08-07T23:10:36.343Z,55.94
2022-08-07T23:13:48.735Z,55.54
2022-08-07T23:16:54.690Z,55.36
2022-08-07T23:19:51.616Z,55.30
2022-08-07T23:22:35.020Z,56.12
2022-08-07T23:25:17.999Z,56.82
2022-08-07T23:28:21.280Z,57.26
2022-08-07T23:31:11.330Z,57.66
2022-08-07T23:34:34.063Z,57.16
2022-08-07T23:37:20.246Z,58.33
2022-08-07T23:40:04.868Z,57.41
2022-08-07T23:42:49.830Z,57.00
2022-08-07T23:45:33.276Z,58.21
2022-08-07T23:48:44.723Z,58.42
2022-08-07T23:53:02.153Z,59.06
2022-08-07T23:54:19.603Z,58.41
2022-08-07T23:57:02.180Z,59.93
